Time;durP1;ratioP1;P1;durP2;ratioP2;P2;SDS_P1;SDS_P2;PMS_P1;PMS_P2;Temp;Humidity;BMP_temperature;BMP_pressure;BME280_temperature;BME280_humidity;BME280_pressure;Samples;Min_cycle;Max_cycle;Signal;HPM_P1;HPM_P2
2021/10/11 00:00:15;;;;;;;;;;;;;;;9.09;80.67;100569.22;5008960;28;19920;-72
2021/10/11 00:02:41;;;;;;;;;;;;;;;9.11;80.71;100575.31;5011369;28;19920;-74
2021/10/11 00:05:07;;;;;;;;;;;;;;;9.09;79.92;100574.50;5010865;28;19913;-74
2021/10/11 00:07:32;;;;;;;;;;;;;;;9.12;80.21;100574.38;5009297;28;20527;-74
2021/10/11 00:09:57;;;;;;;;;;;;;;;9.15;79.59;100583.03;5009848;28;19913;-73
2021/10/11 00:12:24;;;;;;;;;;;;;;;9.18;80.24;100576.81;5010397;28;19928;-73
2021/10/11 00:14:50;;;;;;;;;;;;;;;9.14;79.75;100575.19;5010228;28;19913;-74
2021/10/11 00:17:15;;;;;;;;;;;;;;;9.14;79.91;100576.06;5010481;28;19914;-74
2021/10/11 00:19:43;;;;;;;;;;;;;;;9.15;80.24;100580.41;5010652;28;20308;-73
2021/10/11 00:22:08;;;;;;;;;;;;;;;9.21;80.88;100582.84;5002492;28;19913;-74
2021/10/11 00:24:33;;;;;;;;;;;;;;;9.22;80.35;100581.94;5010548;28;20372;-74
2021/10/11 00:26:58;;;;;;;;;;;;;;;9.28;80.39;100569.50;5009436;28;19913;-74
2021/10/11 00:29:23;;;;;;;;;;;;;;;9.34;79.98;100574.59;5010072;28;20560;-74
2021/10/11 00:31:49;;;;;;;;;;;;;;;9.38;79.34;100578.84;5009885;28;19948;-71
2021/10/11 00:34:14;;;;;;;;;;;;;;;9.37;79.96;100577.09;5009006;28;19989;-72
2021/10/11 00:36:39;;;;;;;;;;;;;;;9.36;79.81;100572.78;5010626;28;19913;-72
2021/10/11 00:39:04;;;;;;;;;;;;;;;9.43;79.66;100571.66;5010333;28;19914;-71
2021/10/11 00:41:31;;;;;;;;;;;;;;;9.44;79.69;100573.38;5009195;28;19913;-72
2021/10/11 00:43:57;;;;;;;;;;;;;;;9.50;80.18;100575.81;5025690;28;19913;-73
2021/10/11 00:46:23;;;;;;;;;;;;;;;9.58;79.51;100573.78;5021333;28;20379;-73
2021/10/11 00:48:48;;;;;;;;;;;;;;;9.65;79.97;100575.31;5027875;28;19913;-71
2021/10/11 00:51:13;;;;;;;;;;;;;;;9.70;79.86;100564.66;5029048;28;19917;-71
2021/10/11 00:53:38;;;;;;;;;;;;;;;9.77;79.34;100570.53;5029820;28;19972;-71
2021/10/11 00:56:04;;;;;;;;;;;;;;;9.81;78.85;100564.28;5028765;28;19945;-72
2021/10/11 00:58:29;;;;;;;;;;;;;;;9.89;79.13;100576.28;5029559;28;19944;-71
2021/10/11 01:00:55;;;;;;;;;;;;;;;9.97;78.96;100578.66;5004266;28;19920;-72
2021/10/11 01:03:20;;;;;;;;;;;;;;;10.04;79.24;100574.03;5029338;28;19917;-71
2021/10/11 01:05:45;;;;;;;;;;;;;;;10.09;78.93;100570.34;5032487;28;19913;-72
2021/10/11 01:08:10;;;;;;;;;;;;;;;10.15;79.01;100573.66;5027818;28;19924;-72
2021/10/11 01:10:36;;;;;;;;;;;;;;;10.20;78.64;100585.75;5015821;28;19913;-73
2021/10/11 01:13:01;;;;;;;;;;;;;;;10.28;78.98;100585.53;5011964;28;19932;-73
2021/10/11 01:15:27;;;;;;;;;;;;;;;10.34;78.88;100585.31;5016102;28;19967;-71
2021/10/11 01:17:52;;;;;;;;;;;;;;;10.41;78.83;100580.66;5014689;28;19913;-72
2021/10/11 01:20:17;;;;;;;;;;;;;;;10.48;79.37;100584.81;5013865;28;19913;-72
2021/10/11 01:22:43;;;;;;;;;;;;;;;10.50;79.61;100581.19;5012884;28;19920;-72
2021/10/11 01:25:10;;;;;;;;;;;;;;;10.51;79.88;100571.53;5027730;28;20443;-72
2021/10/11 01:27:35;;;;;;;;;;;;;;;10.53;80.29;100564.41;5011024;28;20392;-72
2021/10/11 01:30:01;;;;;;;;;;;;;;;10.56;80.22;100561.69;5009112;28;19917;-73
2021/10/11 01:32:26;;;;;;;;;;;;;;;10.59;80.12;100566.84;5009185;28;20543;-73
2021/10/11 01:34:51;;;;;;;;;;;;;;;10.66;80.39;100567.47;5009415;28;19920;-73
2021/10/11 01:37:17;;;;;;;;;;;;;;;10.67;80.50;100570.03;5008741;28;19920;-73
2021/10/11 01:39:42;;;;;;;;;;;;;;;10.71;81.03;100576.06;5008850;28;19928;-73
2021/10/11 01:42:08;;;;;;;;;;;;;;;10.74;81.08;100581.22;5009012;28;19913;-72
2021/10/11 01:44:33;;;;;;;;;;;;;;;10.75;81.16;100580.31;5008816;28;19917;-70
2021/10/11 01:46:59;;;;;;;;;;;;;;;10.73;81.30;100569.81;5008963;28;19971;-72
2021/10/11 01:49:24;;;;;;;;;;;;;;;10.74;81.75;100581.22;5008796;28;20396;-72
2021/10/11 01:51:49;;;;;;;;;;;;;;;10.74;82.41;100576.81;5009016;28;20364;-72
2021/10/11 01:54:14;;;;;;;;;;;;;;;10.76;82.58;100571.50;5023825;28;20019;-72
2021/10/11 01:56:40;;;;;;;;;;;;;;;10.77;82.75;100564.44;5008725;28;20384;-72
2021/10/11 01:59:05;;;;;;;;;;;;;;;10.77;83.32;100561.78;5008712;28;19917;-72
2021/10/11 02:01:30;;;;;;;;;;;;;;;10.74;82.88;100557.50;5008152;28;19940;-73
2021/10/11 02:03:55;;;;;;;;;;;;;;;10.76;83.48;100555.66;5009054;28;20476;-71
2021/10/11 02:06:22;;;;;;;;;;;;;;;10.77;83.58;100552.09;5009741;28;20321;-73
2021/10/11 02:08:47;;;;;;;;;;;;;;;10.80;83.79;100548.47;5009147;28;19992;-72
2021/10/11 02:11:12;;;;;;;;;;;;;;;10.84;83.96;100545.66;5007795;28;20033;-71
2021/10/11 02:13:37;;;;;;;;;;;;;;;10.87;83.78;100549.97;5005443;28;19917;-72
2021/10/11 02:16:03;;;;;;;;;;;;;;;10.87;83.54;100553.47;5007084;28;19913;-72
2021/10/11 02:18:28;;;;;;;;;;;;;;;10.89;83.14;100550.78;5008704;28;19919;-72
2021/10/11 02:20:53;;;;;;;;;;;;;;;10.86;83.20;100546.47;5008473;28;19921;-73
2021/10/11 02:23:19;;;;;;;;;;;;;;;10.90;83.53;100553.38;5007441;28;20008;-73
2021/10/11 02:25:44;;;;;;;;;;;;;;;10.91;83.13;100543.66;5008454;28;20281;-72
2021/10/11 02:28:10;;;;;;;;;;;;;;;10.93;83.43;100547.13;5006925;28;19914;-73
2021/10/11 02:30:35;;;;;;;;;;;;;;;10.94;83.42;100541.75;5007894;28;20004;-74
2021/10/11 02:33:00;;;;;;;;;;;;;;;10.95;83.76;100546.13;5008327;28;20060;-74
2021/10/11 02:35:25;;;;;;;;;;;;;;;11.00;84.01;100543.31;5007132;28;19914;-72
2021/10/11 02:37:50;;;;;;;;;;;;;;;11.03;83.54;100531.78;5007451;28;20440;-73
2021/10/11 02:40:16;;;;;;;;;;;;;;;11.03;83.25;100543.19;5008236;28;19921;-73
2021/10/11 02:42:41;;;;;;;;;;;;;;;11.04;83.02;100544.03;5008274;28;20250;-71
2021/10/11 02:45:06;;;;;;;;;;;;;;;11.06;83.11;100550.13;5008358;28;19944;-72
2021/10/11 02:47:32;;;;;;;;;;;;;;;11.05;83.24;100551.91;5008511;28;19921;-72
2021/10/11 02:49:57;;;;;;;;;;;;;;;11.06;82.89;100547.50;5008418;28;19913;-71
2021/10/11 02:52:22;;;;;;;;;;;;;;;11.06;83.37;100545.72;5006845;28;19925;-72
2021/10/11 02:54:47;;;;;;;;;;;;;;;11.09;83.53;100550.84;5009407;28;20003;-72
2021/10/11 02:57:13;;;;;;;;;;;;;;;11.13;83.24;100547.19;5012116;28;19913;-73
2021/10/11 02:59:38;;;;;;;;;;;;;;;11.16;83.01;100543.56;5010558;28;19960;-73
2021/10/11 03:02:04;;;;;;;;;;;;;;;11.13;83.07;100546.34;4996494;28;20007;-73
2021/10/11 03:04:29;;;;;;;;;;;;;;;11.11;83.62;100545.53;4992285;28;19913;-73
2021/10/11 03:06:54;;;;;;;;;;;;;;;11.12;83.10;100547.25;4990780;28;19918;-73
2021/10/11 03:09:19;;;;;;;;;;;;;;;11.11;83.57;100548.16;4992238;28;19914;-73
2021/10/11 03:11:44;;;;;;;;;;;;;;;11.13;83.94;100556.91;4991909;28;19918;-73
2021/10/11 03:14:10;;;;;;;;;;;;;;;11.13;84.30;100557.75;4991848;28;19918;-74
2021/10/11 03:16:35;;;;;;;;;;;;;;;11.13;84.03;100559.53;4991998;28;19914;-73
2021/10/11 03:19:00;;;;;;;;;;;;;;;11.13;84.52;100555.09;4991753;28;19920;-73
2021/10/11 03:21:25;;;;;;;;;;;;;;;11.14;84.62;100548.91;4991989;28;19914;-73
2021/10/11 03:23:51;;;;;;;;;;;;;;;11.16;84.51;100546.22;4992588;28;20401;-72
2021/10/11 03:26:17;;;;;;;;;;;;;;;11.19;84.77;100543.44;4991533;28;19924;-72
2021/10/11 03:28:43;;;;;;;;;;;;;;;11.22;84.31;100545.09;4991802;28;20331;-72
2021/10/11 03:31:08;;;;;;;;;;;;;;;11.25;84.56;100543.22;4990016;28;20024;-72
2021/10/11 03:33:33;;;;;;;;;;;;;;;11.30;84.55;100546.53;4991495;28;20297;-73
2021/10/11 03:35:58;;;;;;;;;;;;;;;11.36;84.63;100551.53;4991839;28;19913;-73
2021/10/11 03:38:23;;;;;;;;;;;;;;;11.41;84.88;100545.22;4991847;28;20369;-72
2021/10/11 03:40:49;;;;;;;;;;;;;;;11.42;84.58;100553.09;4991662;28;20370;-73
2021/10/11 03:43:14;;;;;;;;;;;;;;;11.42;84.38;100544.28;4991453;28;20393;-72
2021/10/11 03:45:39;;;;;;;;;;;;;;;11.46;84.97;100546.75;4991895;28;20288;-73
2021/10/11 03:48:04;;;;;;;;;;;;;;;11.51;85.13;100546.56;4991772;28;19921;-73
2021/10/11 03:50:30;;;;;;;;;;;;;;;11.56;85.30;100555.16;4994420;28;20056;-73
2021/10/11 03:52:55;;;;;;;;;;;;;;;11.60;84.79;100547.06;4997162;28;19918;-74
2021/10/11 03:55:20;;;;;;;;;;;;;;;11.64;84.52;100553.09;4993250;28;19993;-73
2021/10/11 03:57:46;;;;;;;;;;;;;;;11.67;84.47;100558.22;4991925;28;19929;-74
2021/10/11 04:00:11;;;;;;;;;;;;;;;11.68;84.59;100554.66;4991630;28;19920;-73
2021/10/11 04:02:36;;;;;;;;;;;;;;;11.76;85.07;100563.13;4991485;28;20003;-73
2021/10/11 04:05:02;;;;;;;;;;;;;;;11.78;84.48;100558.63;4990991;28;19997;-73
2021/10/11 04:07:27;;;;;;;;;;;;;;;11.81;84.41;100552.34;4990992;28;19914;-73
2021/10/11 04:09:54;;;;;;;;;;;;;;;11.81;84.34;100553.25;4991146;28;19913;-73
2021/10/11 04:12:20;;;;;;;;;;;;;;;11.81;84.67;100553.25;5000396;28;19925;-73
2021/10/11 04:14:46;;;;;;;;;;;;;;;11.83;84.57;100543.44;5010507;28;19978;-74
2021/10/11 04:17:12;;;;;;;;;;;;;;;11.83;84.26;100539.94;5011293;28;19917;-73
2021/10/11 04:19:37;;;;;;;;;;;;;;;11.85;84.58;100537.25;5010469;28;19968;-73
2021/10/11 04:22:02;;;;;;;;;;;;;;;11.87;84.31;100543.38;5011045;28;19913;-73
2021/10/11 04:24:28;;;;;;;;;;;;;;;11.83;84.49;100540.78;5011831;28;19917;-72
2021/10/11 04:26:53;;;;;;;;;;;;;;;11.86;84.75;100531.88;5010547;28;19936;-73
2021/10/11 04:29:18;;;;;;;;;;;;;;;11.89;84.61;100536.22;5010674;28;19924;-73
2021/10/11 04:31:43;;;;;;;;;;;;;;;11.87;84.51;100533.66;5010191;28;20000;-72
2021/10/11 04:34:09;;;;;;;;;;;;;;;11.92;84.80;100544.03;5009891;28;19961;-73
2021/10/11 04:36:34;;;;;;;;;;;;;;;11.95;84.54;100542.09;5010119;28;20413;-72
2021/10/11 04:38:59;;;;;;;;;;;;;;;11.95;84.05;100552.66;5010009;28;19913;-73
2021/10/11 04:41:24;;;;;;;;;;;;;;;11.97;84.61;100549.97;5009827;28;20316;-74
2021/10/11 04:43:50;;;;;;;;;;;;;;;11.96;83.84;100548.22;5010642;28;20389;-73
2021/10/11 04:46:15;;;;;;;;;;;;;;;11.95;83.79;100551.81;5009944;28;19940;-73
2021/10/11 04:48:40;;;;;;;;;;;;;;;11.98;83.74;100562.25;5009655;28;19913;-72
2021/10/11 04:51:06;;;;;;;;;;;;;;;12.02;83.85;100555.91;5009514;28;19913;-73
2021/10/11 04:53:31;;;;;;;;;;;;;;;12.00;83.30;100557.75;5009615;28;19921;-73
2021/10/11 04:55:56;;;;;;;;;;;;;;;12.02;84.05;100567.34;5009583;28;20292;-73
2021/10/11 04:58:21;;;;;;;;;;;;;;;12.00;83.48;100561.25;5012283;28;19914;-74
2021/10/11 05:00:46;;;;;;;;;;;;;;;11.99;83.50;100566.63;5008406;28;19923;-73
2021/10/11 05:03:12;;;;;;;;;;;;;;;12.00;83.57;100565.69;5005687;28;20369;-73
2021/10/11 05:05:37;;;;;;;;;;;;;;;11.97;83.35;100571.13;4989713;28;19914;-73
2021/10/11 05:08:02;;;;;;;;;;;;;;;12.01;84.12;100567.38;4988607;28;19914;-74
2021/10/11 05:10:28;;;;;;;;;;;;;;;12.01;83.46;100568.28;4988103;28;20393;-73
2021/10/11 05:12:53;;;;;;;;;;;;;;;12.03;83.38;100565.53;4989063;28;19922;-73
2021/10/11 05:15:18;;;;;;;;;;;;;;;12.01;82.73;100562.09;4988700;28;19957;-76
2021/10/11 05:17:44;;;;;;;;;;;;;;;11.99;82.69;100572.75;4990110;28;20365;-73
2021/10/11 05:20:10;;;;;;;;;;;;;;;11.97;82.80;100576.41;4989195;28;19924;-73
2021/10/11 05:22:35;;;;;;;;;;;;;;;11.96;82.65;100572.91;4989442;28;19964;-73
2021/10/11 05:25:00;;;;;;;;;;;;;;;11.95;82.70;100570.31;4989153;28;19941;-73
2021/10/11 05:27:26;;;;;;;;;;;;;;;11.94;82.67;100573.88;4990255;28;20370;-72
2021/10/11 05:29:51;;;;;;;;;;;;;;;11.95;82.72;100570.31;4992928;28;20005;-73
2021/10/11 05:32:16;;;;;;;;;;;;;;;11.93;83.00;100580.09;4992502;28;20266;-74
2021/10/11 05:34:42;;;;;;;;;;;;;;;11.95;82.73;100578.25;4991855;28;19987;-73
2021/10/11 05:37:07;;;;;;;;;;;;;;;11.89;83.02;100573.19;4989993;28;20369;-74
2021/10/11 05:39:32;;;;;;;;;;;;;;;11.87;82.93;100585.63;4989164;28;19929;-75
2021/10/11 05:41:58;;;;;;;;;;;;;;;11.88;83.29;100587.34;4989299;28;20041;-74
2021/10/11 05:44:23;;;;;;;;;;;;;;;11.87;83.07;100591.78;4989710;28;20347;-75
2021/10/11 05:46:48;;;;;;;;;;;;;;;11.92;83.40;100584.50;4989413;28;20485;-73
2021/10/11 05:49:14;;;;;;;;;;;;;;;11.94;82.68;100584.47;4989304;28;19984;-74
2021/10/11 05:51:39;;;;;;;;;;;;;;;11.95;83.10;100594.94;4989117;28;19920;-74
2021/10/11 05:54:05;;;;;;;;;;;;;;;11.96;82.30;100594.03;4987772;28;19922;-74
2021/10/11 05:56:30;;;;;;;;;;;;;;;11.93;82.96;100599.44;4989130;28;20000;-73
2021/10/11 05:58:55;;;;;;;;;;;;;;;11.94;83.36;100597.66;4989453;28;19922;-74
2021/10/11 06:01:20;;;;;;;;;;;;;;;11.95;83.02;100597.59;4989147;28;20408;-74
2021/10/11 06:03:45;;;;;;;;;;;;;;;11.94;82.27;100608.25;4989534;28;20024;-74
2021/10/11 06:06:11;;;;;;;;;;;;;;;11.95;82.33;100609.94;4989289;28;20317;-73
2021/10/11 06:08:36;;;;;;;;;;;;;;;11.98;82.62;100604.53;4989247;28;19921;-74
2021/10/11 06:11:01;;;;;;;;;;;;;;;11.98;83.55;100599.25;4988617;28;19944;-73
2021/10/11 06:13:26;;;;;;;;;;;;;;;11.99;82.66;100600.97;4987370;28;20473;-74
2021/10/11 06:15:51;;;;;;;;;;;;;;;11.98;83.20;100600.09;4990427;28;20306;-74
2021/10/11 06:18:17;;;;;;;;;;;;;;;11.94;82.77;100597.66;4988991;28;19921;-74
2021/10/11 06:20:42;;;;;;;;;;;;;;;11.95;82.96;100587.03;4988590;28;20000;-73
2021/10/11 06:23:07;;;;;;;;;;;;;;;11.98;82.99;100597.44;4988953;28;19997;-72
2021/10/11 06:25:32;;;;;;;;;;;;;;;11.96;82.71;100593.16;4992985;28;19914;-76
2021/10/11 06:27:58;;;;;;;;;;;;;;;11.94;83.03;100589.75;4991613;28;19914;-74
2021/10/11 06:30:23;;;;;;;;;;;;;;;11.96;83.27;100594.03;4991565;28;19921;-74
2021/10/11 06:32:48;;;;;;;;;;;;;;;11.97;83.42;100597.53;4993075;28;20377;-74
2021/10/11 06:35:13;;;;;;;;;;;;;;;12.00;82.88;100602.69;4992821;28;19914;-73
2021/10/11 06:37:39;;;;;;;;;;;;;;;11.98;83.09;100602.75;4992669;28;20616;-73
2021/10/11 06:40:04;;;;;;;;;;;;;;;12.01;82.93;100597.34;5000389;28;19977;-73
2021/10/11 06:42:30;;;;;;;;;;;;;;;12.03;82.52;100600.78;4993226;28;20052;-74
2021/10/11 06:44:56;;;;;;;;;;;;;;;12.05;82.26;100605.13;5004513;28;20324;-74
2021/10/11 06:47:21;;;;;;;;;;;;;;;12.05;82.28;100608.63;4993799;28;20057;-73
2021/10/11 06:49:46;;;;;;;;;;;;;;;12.05;81.68;100616.56;4987575;28;19921;-74
2021/10/11 06:52:14;;;;;;;;;;;;;;;12.02;81.88;100612.25;4987156;28;20489;-75
2021/10/11 06:54:40;;;;;;;;;;;;;;;12.02;81.72;100616.69;4990561;28;20024;-73
2021/10/11 06:57:05;;;;;;;;;;;;;;;12.04;81.21;100614.84;4992722;28;20024;-73
2021/10/11 06:59:30;;;;;;;;;;;;;;;12.06;81.86;100617.41;4991374;28;19917;-74
2021/10/11 07:01:55;;;;;;;;;;;;;;;12.07;81.28;100621.78;4987717;28;19925;-74
2021/10/11 07:04:21;;;;;;;;;;;;;;;12.06;81.76;100618.31;4988157;28;19918;-74
2021/10/11 07:06:47;;;;;;;;;;;;;;;12.10;82.29;100626.94;4986008;28;19918;-74
2021/10/11 07:09:12;;;;;;;;;;;;;;;12.12;81.45;100630.38;4987475;28;19917;-74
2021/10/11 07:11:37;;;;;;;;;;;;;;;12.12;81.40;100631.25;4987578;28;19921;-75
2021/10/11 07:14:03;;;;;;;;;;;;;;;12.14;81.74;100633.84;4988196;28;20336;-73
2021/10/11 07:16:28;;;;;;;;;;;;;;;12.22;81.02;100629.06;4980878;28;19929;-74
2021/10/11 07:18:53;;;;;;;;;;;;;;;12.24;81.00;100632.50;4999815;28;19917;-74
2021/10/11 07:21:18;;;;;;;;;;;;;;;12.21;80.13;100636.16;4986402;28;19922;-75
2021/10/11 07:23:43;;;;;;;;;;;;;;;12.24;79.77;100633.38;4987028;28;19924;-74
2021/10/11 07:26:09;;;;;;;;;;;;;;;12.31;80.11;100641.06;5000221;28;20050;-73
2021/10/11 07:28:34;;;;;;;;;;;;;;;12.38;80.38;100640.72;5005243;28;20006;-74
2021/10/11 07:31:00;;;;;;;;;;;;;;;12.40;79.66;100661.78;4997384;28;19917;-74
2021/10/11 07:33:25;;;;;;;;;;;;;;;12.46;79.54;100653.63;5007510;28;19922;-73
2021/10/11 07:35:51;;;;;;;;;;;;;;;12.50;79.18;100664.91;4994943;28;19918;-75
2021/10/11 07:38:16;;;;;;;;;;;;;;;12.52;79.71;100663.91;4986628;28;19918;-76
2021/10/11 07:40:42;;;;;;;;;;;;;;;12.50;78.94;100665.75;4986430;28;20369;-74
2021/10/11 07:43:07;;;;;;;;;;;;;;;12.53;78.84;100664.75;4987024;28;20365;-74
2021/10/11 07:45:32;;;;;;;;;;;;;;;12.58;78.80;100658.38;4986820;28;20574;-75
2021/10/11 07:47:58;;;;;;;;;;;;;;;12.61;78.55;100665.31;4987168;28;19918;-74
2021/10/11 07:50:23;;;;;;;;;;;;;;;12.65;78.23;100666.88;4986411;28;19917;-75
2021/10/11 07:52:48;;;;;;;;;;;;;;;12.67;78.17;100660.63;4986067;28;20056;-74
2021/10/11 07:55:14;;;;;;;;;;;;;;;12.67;77.36;100662.38;4986767;28;19972;-75
2021/10/11 07:57:40;;;;;;;;;;;;;;;12.72;78.33;100657.75;4990969;28;19928;-74
2021/10/11 08:00:07;;;;;;;;;;;;;;;12.75;77.04;100659.41;4997011;28;19917;-74
2021/10/11 08:02:32;;;;;;;;;;;;;;;12.84;76.65;100659.00;5021072;28;19936;-75
2021/10/11 08:04:57;;;;;;;;;;;;;;;12.91;77.13;100662.25;5006483;28;19918;-76
2021/10/11 08:07:22;;;;;;;;;;;;;;;12.95;76.58;100661.19;5020676;28;19917;-75
2021/10/11 08:09:48;;;;;;;;;;;;;;;12.97;75.87;100665.47;4999462;28;20300;-73
2021/10/11 08:12:13;;;;;;;;;;;;;;;13.05;76.39;100675.72;4991012;28;20440;-74
2021/10/11 08:14:38;;;;;;;;;;;;;;;13.09;74.57;100678.16;4986359;28;20393;-74
2021/10/11 08:17:03;;;;;;;;;;;;;;;13.18;73.42;100673.38;4987726;28;19972;-73
2021/10/11 08:19:29;;;;;;;;;;;;;;;13.23;73.59;100674.84;5005171;28;19917;-72
2021/10/11 08:21:54;;;;;;;;;;;;;;;13.36;73.63;100675.19;5005934;28;19949;-74
2021/10/11 08:24:19;;;;;;;;;;;;;;;13.45;72.79;100682.69;5005764;28;19917;-74
2021/10/11 08:26:45;;;;;;;;;;;;;;;13.49;72.01;100688.72;5005813;28;19925;-73
2021/10/11 08:29:10;;;;;;;;;;;;;;;13.54;70.46;100694.69;5005750;28;19917;-74
2021/10/11 08:31:36;;;;;;;;;;;;;;;13.62;71.30;100683.72;5010714;28;19927;-75
2021/10/11 08:34:02;;;;;;;;;;;;;;;13.64;68.66;100687.16;4997479;28;19921;-73
2021/10/11 08:36:27;;;;;;;;;;;;;;;13.71;68.93;100693.88;4999206;28;20385;-73
2021/10/11 08:38:52;;;;;;;;;;;;;;;13.77;69.82;100698.03;5000496;28;20432;-73
2021/10/11 08:41:18;;;;;;;;;;;;;;;13.79;70.05;100686.41;5003757;28;19917;-73
2021/10/11 08:43:44;;;;;;;;;;;;;;;14.05;68.12;100692.22;5004613;28;19917;-74
2021/10/11 08:46:09;;;;;;;;;;;;;;;14.34;67.54;100690.78;5003624;28;19921;-75
2021/10/11 08:48:35;;;;;;;;;;;;;;;14.57;65.88;100685.22;5004740;28;20016;-74
2021/10/11 08:51:01;;;;;;;;;;;;;;;14.93;64.18;100678.91;5002344;28;19918;-74
2021/10/11 08:53:26;;;;;;;;;;;;;;;15.13;62.49;100680.50;5004967;28;19928;-74
2021/10/11 08:55:51;;;;;;;;;;;;;;;15.16;62.48;100676.81;5005158;28;19917;-74
2021/10/11 08:58:16;;;;;;;;;;;;;;;15.44;62.04;100677.03;5003038;28;19974;-75
2021/10/11 09:00:42;;;;;;;;;;;;;;;16.03;61.33;100685.28;4996279;28;19921;-72
2021/10/11 09:03:07;;;;;;;;;;;;;;;16.69;58.05;100686.72;4995621;28;20699;-72
2021/10/11 09:05:34;;;;;;;;;;;;;;;17.33;57.26;100683.72;4994062;28;19972;-73
2021/10/11 09:08:09;;;;;;;;;;;;;;;17.79;55.97;100686.97;5039789;27;19975;-73
2021/10/11 09:10:49;;;;;;;;;;;;;;;17.99;52.48;100682.16;5027833;28;19925;-73
2021/10/11 09:13:15;;;;;;;;;;;;;;;18.51;50.40;100699.16;5065661;28;20623;-73
2021/10/11 09:15:40;;;;;;;;;;;;;;;18.75;50.30;100680.63;5083481;28;19921;-76
2021/10/11 09:18:06;;;;;;;;;;;;;;;19.34;48.48;100682.75;5085948;28;19923;-75
2021/10/11 09:20:36;;;;;;;;;;;;;;;18.74;49.91;100676.25;5083730;28;19916;-75
2021/10/11 09:23:02;;;;;;;;;;;;;;;18.02;52.54;100680.16;5085549;28;19916;-74
2021/10/11 09:25:35;;;;;;;;;;;;;;;18.03;53.20;100671.19;5086893;28;19943;-75
2021/10/11 09:28:01;;;;;;;;;;;;;;;17.89;52.81;100673.91;5085713;28;19927;-73
2021/10/11 09:33:32;;;;;;;;;;;;;;;17.10;53.12;100679.81;5145138;22;19934;-67
2021/10/11 09:36:02;;;;;;;;;;;;;;;16.56;54.43;100680.38;5103760;27;19916;-69
2021/10/11 09:38:29;;;;;;;;;;;;;;;16.15;56.56;100688.19;5088557;28;20389;-68
2021/10/11 09:40:55;;;;;;;;;;;;;;;16.01;56.55;100683.66;5082621;28;19916;-70
2021/10/11 09:43:22;;;;;;;;;;;;;;;16.01;56.81;100684.50;5083718;28;20019;-69
2021/10/11 09:45:47;;;;;;;;;;;;;;;15.99;56.56;100685.53;5085494;28;19916;-68
2021/10/11 09:48:13;;;;;;;;;;;;;;;16.05;57.00;100682.53;5079808;27;20013;-67
2021/10/11 09:50:39;;;;;;;;;;;;;;;15.93;58.36;100686.75;5086456;28;20023;-71
2021/10/11 09:53:05;;;;;;;;;;;;;;;15.80;59.18;100686.59;5091284;28;20364;-68
2021/10/11 09:55:32;;;;;;;;;;;;;;;15.61;60.21;100681.41;5087657;28;19991;-69
2021/10/11 09:57:58;;;;;;;;;;;;;;;15.52;58.94;100684.56;5081046;28;20015;-69
2021/10/11 10:00:23;;;;;;;;;;;;;;;15.75;60.31;100690.44;5082279;28;20010;-68
2021/10/11 10:02:50;;;;;;;;;;;;;;;15.75;59.83;100685.13;5087941;28;20212;-70
2021/10/11 10:05:21;;;;;;;;;;;;;;;15.66;59.20;100689.97;5081026;28;19943;-75
2021/10/11 10:07:48;;;;;;;;;;;;;;;15.65;58.30;100682.06;5086264;27;20427;-76
2021/10/11 10:10:17;;;;;;;;;;;;;;;15.61;59.60;100685.88;5094869;27;19919;-75
2021/10/11 10:12:45;;;;;;;;;;;;;;;15.46;59.96;100679.63;5103164;27;19954;-74
2021/10/11 10:15:10;;;;;;;;;;;;;;;15.33;60.00;100673.25;5119404;27;19919;-77
2021/10/11 10:17:35;;;;;;;;;;;;;;;15.31;61.00;100669.81;5116487;27;19926;-74
2021/10/11 10:20:09;;;;;;;;;;;;;;;15.35;61.85;100668.69;5107355;27;20007;-74
2021/10/11 10:22:35;;;;;;;;;;;;;;;15.15;60.33;100675.09;5100692;27;19927;-77
2021/10/11 10:25:05;;;;;;;;;;;;;;;14.94;61.83;100669.13;5081362;28;19923;-76
2021/10/11 10:27:33;;;;;;;;;;;;;;;14.85;61.33;100661.69;5074405;28;19959;-76
2021/10/11 10:29:59;;;;;;;;;;;;;;;14.72;58.93;100667.63;5065954;28;19925;-75
2021/10/11 10:35:00;;;;;;;;;;;;;;;14.65;59.10;100670.69;5188415;22;19978;-73
2021/10/11 10:37:35;;;;;;;;;;;;;;;14.69;60.20;100661.59;5043468;28;19935;-71
2021/10/11 10:40:06;;;;;;;;;;;;;;;14.67;59.43;100664.38;5053373;28;19920;-72
2021/10/11 10:42:31;;;;;;;;;;;;;;;14.64;60.37;100661.84;5048492;28;19927;-72
2021/10/11 10:44:57;;;;;;;;;;;;;;;14.57;61.36;100663.09;5029626;28;19925;-72
2021/10/11 10:47:33;;;;;;;;;;;;;;;14.55;59.67;100665.00;5043296;28;20220;-72
2021/10/11 10:49:58;;;;;;;;;;;;;;;14.62;60.33;100671.72;5045758;28;19928;-72
2021/10/11 10:52:23;;;;;;;;;;;;;;;14.64;60.06;100676.91;5039809;28;19925;-73
2021/10/11 10:54:51;;;;;;;;;;;;;;;14.58;60.87;100671.00;5005649;28;20006;-73
2021/10/11 10:57:20;;;;;;;;;;;;;;;14.56;60.69;100682.63;5031099;28;19932;-74
2021/10/11 11:00:03;;;;;;;;;;;;;;;14.56;59.18;100683.47;5041758;28;19971;-72
2021/10/11 11:02:29;;;;;;;;;;;;;;;14.49;58.62;100678.53;5043666;28;19982;-74
2021/10/11 11:04:59;;;;;;;;;;;;;;;14.46;58.27;100689.31;5035065;28;19925;-73
2021/10/11 11:07:35;;;;;;;;;;;;;;;14.52;59.14;100687.22;5029224;28;19932;-72
2021/10/11 11:10:02;;;;;;;;;;;;;;;14.52;58.72;100681.91;5026009;28;19921;-73
2021/10/11 11:12:31;;;;;;;;;;;;;;;14.60;59.85;100692.16;5027342;28;19956;-71
2021/10/11 11:14:56;;;;;;;;;;;;;;;14.58;59.53;100692.22;5044209;28;19935;-73
2021/10/11 11:17:32;;;;;;;;;;;;;;;14.60;59.63;100694.81;5045879;28;19921;-71
2021/10/11 11:19:57;;;;;;;;;;;;;;;14.52;58.67;100689.88;5026780;28;20106;-73
2021/10/11 11:22:27;;;;;;;;;;;;;;;14.52;58.90;100686.31;5044093;28;20047;-74
2021/10/11 11:24:52;;;;;;;;;;;;;;;14.60;59.99;100679.75;5044127;28;19921;-73
2021/10/11 11:27:31;;;;;;;;;;;;;;;14.61;60.33;100685.91;5024831;28;20303;-72
2021/10/11 11:29:57;;;;;;;;;;;;;;;14.56;60.83;100679.97;5023784;28;20396;-72
2021/10/11 11:32:22;;;;;;;;;;;;;;;14.50;61.67;100678.47;5024780;28;20453;-74
2021/10/11 11:34:47;;;;;;;;;;;;;;;14.51;62.28;100679.31;5024323;28;19921;-74
2021/10/11 11:37:12;;;;;;;;;;;;;;;14.53;62.82;100688.06;5025214;28;20344;-74
2021/10/11 11:39:38;;;;;;;;;;;;;;;14.55;62.61;100694.19;5024954;28;20020;-72
2021/10/11 11:42:03;;;;;;;;;;;;;;;14.56;63.59;100686.13;5025306;28;19921;-72
2021/10/11 11:44:28;;;;;;;;;;;;;;;14.55;63.15;100681.78;5023765;28;19921;-72
2021/10/11 11:47:01;;;;;;;;;;;;;;;14.50;63.32;100680.28;5024666;28;19921;-72
2021/10/11 11:49:26;;;;;;;;;;;;;;;14.39;62.59;100676.34;5023020;28;19921;-71
2021/10/11 11:52:02;;;;;;;;;;;;;;;14.36;62.97;100681.81;5024790;28;19928;-72
2021/10/11 11:54:27;;;;;;;;;;;;;;;14.32;63.09;100682.03;5024583;28;20019;-71
2021/10/11 11:56:54;;;;;;;;;;;;;;;14.37;63.38;100674.69;5023595;28;20055;-74
2021/10/11 11:59:19;;;;;;;;;;;;;;;14.47;63.76;100664.47;5022137;28;19928;-73
2021/10/11 12:01:44;;;;;;;;;;;;;;;14.48;63.21;100668.88;5024353;28;19925;-72
2021/10/11 12:04:10;;;;;;;;;;;;;;;14.43;62.51;100670.91;5023488;28;20410;-73
2021/10/11 12:06:36;;;;;;;;;;;;;;;14.44;62.42;100669.94;5023443;28;19978;-73
2021/10/11 12:09:03;;;;;;;;;;;;;;;14.45;62.56;100656.63;5024286;28;19921;-73
2021/10/11 12:11:28;;;;;;;;;;;;;;;14.54;63.28;100656.16;5024102;28;19921;-72
2021/10/11 12:13:57;;;;;;;;;;;;;;;14.61;62.52;100646.09;5023856;28;20335;-72
2021/10/11 12:16:24;;;;;;;;;;;;;;;14.64;62.39;100651.22;5024300;28;19928;-74
2021/10/11 12:18:51;;;;;;;;;;;;;;;14.66;62.10;100641.41;5032309;28;19928;-74
2021/10/11 12:21:27;;;;;;;;;;;;;;;14.63;61.68;100644.22;5043460;28;19933;-73
2021/10/11 12:23:54;;;;;;;;;;;;;;;14.59;62.27;100640.88;5043546;28;20050;-74
2021/10/11 12:26:20;;;;;;;;;;;;;;;14.57;62.80;100647.19;5025382;28;19990;-73
2021/10/11 12:28:52;;;;;;;;;;;;;;;14.52;63.16;100641.22;5044025;28;20111;-71
2021/10/11 12:31:25;;;;;;;;;;;;;;;14.50;63.25;100643.97;5043753;28;19920;-72
2021/10/11 12:33:51;;;;;;;;;;;;;;;14.50;63.80;100635.16;5043471;28;19917;-72
2021/10/11 12:36:17;;;;;;;;;;;;;;;14.49;62.51;100634.28;5043925;28;19973;-69